Time;durP1;ratioP1;P1;durP2;ratioP2;P2;SDS_P1;SDS_P2;PMS_P1;PMS_P2;Temp;Humidity;BMP_temperature;BMP_pressure;BME280_temperature;BME280_humidity;BME280_pressure;Samples;Min_cycle;Max_cycle;Signal;HPM_P1;HPM_P2
2022/07/29 00:00:16;;;;;;;11.70;9.20;;;;;;;;;;5043527;28;20509;-59
2022/07/29 00:02:42;;;;;;;9.80;9.00;;;;;;;;;;5042878;28;20609;-59
2022/07/29 00:05:08;;;;;;;9.98;8.98;;;;;;;;;;5040554;28;20039;-59
2022/07/29 00:07:33;;;;;;;9.82;8.93;;;;;;;;;;5043609;28;20482;-59
2022/07/29 00:09:58;;;;;;;10.60;9.52;;;;;;;;;;5043898;28;20578;-59
2022/07/29 00:12:24;;;;;;;10.32;9.43;;;;;;;;;;5043749;28;20032;-59
2022/07/29 00:14:50;;;;;;;9.60;8.80;;;;;;;;;;5041300;28;20116;-59
2022/07/29 00:17:15;;;;;;;10.52;9.63;;;;;;;;;;5043094;28;20021;-59
2022/07/29 00:19:40;;;;;;;10.00;9.30;;;;;;;;;;5027728;28;20033;-59
2022/07/29 00:22:06;;;;;;;11.13;9.90;;;;;;;;;;5041862;28;20475;-59
2022/07/29 00:24:31;;;;;;;9.60;8.85;;;;;;;;;;5041452;28;20112;-59
2022/07/29 00:26:56;;;;;;;9.82;8.95;;;;;;;;;;5042710;28;20124;-59
2022/07/29 00:29:22;;;;;;;10.57;9.52;;;;;;;;;;5043568;28;20403;-61
2022/07/29 00:31:47;;;;;;;10.15;9.25;;;;;;;;;;5043103;28;20029;-59
2022/07/29 00:36:56;;;;;;;10.38;9.40;;;;;;;;;;5028610;28;20545;-59
2022/07/29 00:39:22;;;;;;;10.95;9.95;;;;;;;;;;5045193;28;20029;-60
2022/07/29 00:41:47;;;;;;;11.15;10.27;;;;;;;;;;5020197;28;20052;-60
2022/07/29 00:44:12;;;;;;;11.18;10.27;;;;;;;;;;5020938;28;20434;-60
2022/07/29 00:46:37;;;;;;;10.75;9.85;;;;;;;;;;5022878;28;20578;-59
2022/07/29 00:49:03;;;;;;;10.23;9.15;;;;;;;;;;5025127;28;20066;-59
2022/07/29 00:51:28;;;;;;;10.93;9.93;;;;;;;;;;5022031;28;20025;-60
2022/07/29 00:53:53;;;;;;;10.73;9.82;;;;;;;;;;5021025;28;20033;-59
2022/07/29 00:56:18;;;;;;;11.45;10.27;;;;;;;;;;5020828;28;20567;-59
2022/07/29 00:58:45;;;;;;;11.32;10.30;;;;;;;;;;5021734;28;20440;-60
2022/07/29 01:01:11;;;;;;;10.45;9.65;;;;;;;;;;5024874;28;20040;-59
2022/07/29 01:03:36;;;;;;;11.43;10.45;;;;;;;;;;5017900;28;20029;-59
2022/07/29 01:06:01;;;;;;;10.35;9.40;;;;;;;;;;5019793;28;20106;-59
2022/07/29 01:08:27;;;;;;;11.15;10.15;;;;;;;;;;5022514;28;20033;-59
2022/07/29 01:10:53;;;;;;;10.95;10.15;;;;;;;;;;5024506;28;20025;-59
2022/07/29 01:13:18;;;;;;;10.85;9.85;;;;;;;;;;5023993;28;20151;-59
2022/07/29 01:15:45;;;;;;;11.00;10.05;;;;;;;;;;5021014;28;20442;-60
2022/07/29 01:18:14;;;;;;;10.40;9.35;;;;;;;;;;5021252;28;20435;-59
2022/07/29 01:21:07;;;;;;;10.48;9.68;;;;;;;;;;5024355;28;20026;-59
2022/07/29 01:23:45;;;;;;;11.35;10.23;;;;;;;;;;5023318;28;20030;-62
2022/07/29 01:26:17;;;;;;;10.68;9.70;;;;;;;;;;5020782;28;20036;-59
2022/07/29 01:28:55;;;;;;;10.02;9.23;;;;;;;;;;5023706;28;20479;-59
2022/07/29 01:31:28;;;;;;;10.82;9.73;;;;;;;;;;5024908;28;20029;-60
2022/07/29 01:33:58;;;;;;;11.02;9.88;;;;;;;;;;5020273;28;20127;-59
2022/07/29 01:36:27;;;;;;;10.65;9.77;;;;;;;;;;5019658;28;20025;-60
2022/07/29 01:39:04;;;;;;;10.50;9.55;;;;;;;;;;5023810;28;20615;-60
2022/07/29 01:41:31;;;;;;;11.40;10.38;;;;;;;;;;5037037;28;20156;-59
2022/07/29 01:43:58;;;;;;;12.20;10.98;;;;;;;;;;5038992;28;20029;-59
2022/07/29 01:46:34;;;;;;;10.55;9.68;;;;;;;;;;5042153;28;20554;-59
2022/07/29 01:49:10;;;;;;;11.00;10.00;;;;;;;;;;5043599;28;20021;-60
2022/07/29 01:51:50;;;;;;;10.98;9.82;;;;;;;;;;5042856;28;20379;-60
2022/07/29 01:54:37;;;;;;;11.73;10.63;;;;;;;;;;5023137;28;20588;-60
2022/07/29 01:57:03;;;;;;;11.50;10.50;;;;;;;;;;5040426;28;20488;-60
2022/07/29 01:59:29;;;;;;;11.35;10.35;;;;;;;;;;5042720;28;20036;-60
2022/07/29 02:01:56;;;;;;;10.85;9.95;;;;;;;;;;5040278;28;20028;-60
2022/07/29 02:04:22;;;;;;;10.52;9.73;;;;;;;;;;5040975;28;20020;-61
2022/07/29 02:06:49;;;;;;;12.02;10.80;;;;;;;;;;5044154;28;20037;-59
2022/07/29 02:09:14;;;;;;;11.07;10.18;;;;;;;;;;5041611;28;20040;-60
2022/07/29 02:11:42;;;;;;;11.20;10.30;;;;;;;;;;5020481;28;20033;-60
2022/07/29 02:14:08;;;;;;;11.02;10.05;;;;;;;;;;5041540;28;20021;-59
2022/07/29 02:16:35;;;;;;;11.82;10.60;;;;;;;;;;5043357;28;20496;-60
2022/07/29 02:19:01;;;;;;;11.93;10.95;;;;;;;;;;5046405;28;20160;-60
2022/07/29 02:21:27;;;;;;;11.35;10.25;;;;;;;;;;5042670;28;20033;-60
2022/07/29 02:23:54;;;;;;;11.95;10.77;;;;;;;;;;5044094;28;20036;-60
2022/07/29 02:26:20;;;;;;;11.80;10.70;;;;;;;;;;5047219;28;20033;-60
2022/07/29 02:28:46;;;;;;;11.70;10.70;;;;;;;;;;5045940;28;20021;-59
2022/07/29 02:31:12;;;;;;;11.00;9.98;;;;;;;;;;5043206;28;20032;-60
2022/07/29 02:33:38;;;;;;;10.80;9.90;;;;;;;;;;5046382;28;20084;-59
2022/07/29 02:36:04;;;;;;;11.75;10.60;;;;;;;;;;5047390;28;20071;-60
2022/07/29 02:41:16;;;;;;;11.67;10.50;;;;;;;;;;5043452;28;20126;-59
2022/07/29 02:43:43;;;;;;;10.77;9.60;;;;;;;;;;5045912;28;20021;-59
2022/07/29 02:46:12;;;;;;;11.27;10.38;;;;;;;;;;5046488;28;20402;-60
2022/07/29 02:48:40;;;;;;;10.30;9.38;;;;;;;;;;5043889;28;20060;-60
2022/07/29 02:51:16;;;;;;;11.68;10.77;;;;;;;;;;5043990;28;20028;-60
2022/07/29 02:53:42;;;;;;;11.73;10.63;;;;;;;;;;5027000;28;20033;-60
2022/07/29 02:56:10;;;;;;;11.68;10.68;;;;;;;;;;5046269;28;20111;-61
2022/07/29 02:58:41;;;;;;;11.48;10.32;;;;;;;;;;5042593;28;20467;-60
2022/07/29 03:01:38;;;;;;;10.65;9.68;;;;;;;;;;5044431;28;20032;-60
2022/07/29 03:04:04;;;;;;;11.82;10.73;;;;;;;;;;4962997;28;20038;-60
2022/07/29 03:06:30;;;;;;;12.60;11.38;;;;;;;;;;4972828;28;20034;-60
2022/07/29 03:08:57;;;;;;;11.40;10.32;;;;;;;;;;4973546;28;20027;-60
2022/07/29 03:11:22;;;;;;;11.15;10.20;;;;;;;;;;4974699;28;20404;-60
2022/07/29 03:13:48;;;;;;;11.80;10.73;;;;;;;;;;4977504;28;20081;-61
2022/07/29 03:16:14;;;;;;;9.93;9.05;;;;;;;;;;4976940;28;20509;-64
2022/07/29 03:18:39;;;;;;;11.30;10.30;;;;;;;;;;4974762;28;20029;-60
2022/07/29 03:21:04;;;;;;;11.10;10.10;;;;;;;;;;4959022;28;20038;-60
2022/07/29 03:23:30;;;;;;;11.52;10.30;;;;;;;;;;4979397;28;20118;-60
2022/07/29 03:25:55;;;;;;;11.05;10.15;;;;;;;;;;4975687;28;20042;-60
2022/07/29 03:28:20;;;;;;;12.43;10.45;;;;;;;;;;4971869;28;20038;-60
2022/07/29 03:30:46;;;;;;;11.32;10.32;;;;;;;;;;4976009;28;20026;-61
2022/07/29 03:33:11;;;;;;;11.70;10.25;;;;;;;;;;4976840;28;20042;-60
2022/07/29 03:35:37;;;;;;;11.50;10.50;;;;;;;;;;4975008;28;20037;-60
2022/07/29 03:38:02;;;;;;;11.25;10.25;;;;;;;;;;4974040;28;20544;-60
2022/07/29 03:40:31;;;;;;;10.38;9.60;;;;;;;;;;5028155;28;20048;-61
2022/07/29 03:42:57;;;;;;;12.07;10.95;;;;;;;;;;5025161;28;20444;-60
2022/07/29 03:45:24;;;;;;;11.02;10.10;;;;;;;;;;5042365;28;20025;-60
2022/07/29 03:47:51;;;;;;;10.73;9.88;;;;;;;;;;5025637;28;20399;-60
2022/07/29 03:50:19;;;;;;;11.60;10.57;;;;;;;;;;5044626;28;20395;-60
2022/07/29 03:52:44;;;;;;;11.93;9.95;;;;;;;;;;5043509;28;20068;-60
2022/07/29 03:55:09;;;;;;;11.52;10.63;;;;;;;;;;5042357;28;20599;-61
2022/07/29 03:57:35;;;;;;;11.50;10.40;;;;;;;;;;5021904;28;20032;-61
2022/07/29 04:00:01;;;;;;;11.60;10.60;;;;;;;;;;5045220;28;20065;-59
2022/07/29 04:02:26;;;;;;;11.32;10.25;;;;;;;;;;5043750;28;20780;-59
2022/07/29 04:04:52;;;;;;;12.57;10.50;;;;;;;;;;5042791;28;20079;-59
2022/07/29 04:07:17;;;;;;;10.98;9.88;;;;;;;;;;5044240;28;20136;-59
2022/07/29 04:09:42;;;;;;;11.45;10.43;;;;;;;;;;5043960;28;20032;-60
2022/07/29 04:12:08;;;;;;;12.38;10.57;;;;;;;;;;5040987;28;20537;-59
2022/07/29 04:14:34;;;;;;;12.27;11.20;;;;;;;;;;5037356;28;20501;-59
2022/07/29 04:17:03;;;;;;;10.95;9.98;;;;;;;;;;5040562;28;20027;-59
2022/07/29 04:19:28;;;;;;;11.48;10.48;;;;;;;;;;5041517;28;20021;-60
2022/07/29 04:21:53;;;;;;;10.75;9.85;;;;;;;;;;5042716;28;20530;-59
2022/07/29 04:24:18;;;;;;;11.18;10.27;;;;;;;;;;5041075;28;20082;-59
2022/07/29 04:26:45;;;;;;;11.15;10.25;;;;;;;;;;5026675;28;20051;-59
2022/07/29 04:29:11;;;;;;;11.10;9.85;;;;;;;;;;5044444;28;20047;-60
2022/07/29 04:31:37;;;;;;;9.68;8.88;;;;;;;;;;5041393;28;20036;-59
2022/07/29 04:34:02;;;;;;;9.73;8.93;;;;;;;;;;5038222;28;20568;-60
2022/07/29 04:36:27;;;;;;;10.55;9.77;;;;;;;;;;5021055;28;20151;-60
2022/07/29 04:38:52;;;;;;;10.32;9.43;;;;;;;;;;5038230;28;20096;-60
2022/07/29 04:41:17;;;;;;;10.25;9.32;;;;;;;;;;5040664;28;20599;-60
2022/07/29 04:43:43;;;;;;;9.15;8.35;;;;;;;;;;5037912;28;20076;-59
2022/07/29 04:46:08;;;;;;;9.85;9.13;;;;;;;;;;5022156;28;20405;-60
2022/07/29 04:48:33;;;;;;;8.93;8.18;;;;;;;;;;5040857;28;20088;-59
2022/07/29 04:50:58;;;;;;;9.35;8.45;;;;;;;;;;5039255;28;20072;-60
2022/07/29 04:53:24;;;;;;;10.15;9.25;;;;;;;;;;5038762;28;20510;-60
2022/07/29 04:55:49;;;;;;;9.77;8.98;;;;;;;;;;5040427;28;20451;-59
2022/07/29 04:58:16;;;;;;;8.80;8.13;;;;;;;;;;5042816;28;20041;-59
2022/07/29 05:00:41;;;;;;;9.27;8.57;;;;;;;;;;5041229;28;20473;-61
2022/07/29 05:03:06;;;;;;;10.73;9.77;;;;;;;;;;5042122;28;20495;-59
2022/07/29 05:05:31;;;;;;;10.68;9.55;;;;;;;;;;5043180;28;20090;-60
2022/07/29 05:07:57;;;;;;;9.38;8.68;;;;;;;;;;5039266;28;20044;-59
2022/07/29 05:10:22;;;;;;;10.60;9.70;;;;;;;;;;5041217;28;20787;-59
2022/07/29 05:12:47;;;;;;;10.50;9.45;;;;;;;;;;5042012;28;20483;-59
2022/07/29 05:15:13;;;;;;;10.57;9.63;;;;;;;;;;5042384;28;20040;-61
2022/07/29 05:17:38;;;;;;;10.48;9.65;;;;;;;;;;5038614;28;20102;-60
2022/07/29 05:20:04;;;;;;;10.63;9.57;;;;;;;;;;5034608;28;20418;-62
2022/07/29 05:22:30;;;;;;;10.27;9.25;;;;;;;;;;5019240;28;20483;-60
2022/07/29 05:24:56;;;;;;;9.73;8.80;;;;;;;;;;5005006;28;20731;-61
2022/07/29 05:27:22;;;;;;;9.93;9.15;;;;;;;;;;5034742;28;20032;-60
2022/07/29 05:29:47;;;;;;;9.95;9.05;;;;;;;;;;5034136;28;20033;-60
2022/07/29 05:32:12;;;;;;;10.48;9.48;;;;;;;;;;5017762;28;20498;-60
2022/07/29 05:34:38;;;;;;;10.20;9.18;;;;;;;;;;5036751;28;20107;-59
2022/07/29 05:37:03;;;;;;;14.10;10.10;;;;;;;;;;5039807;28;20548;-60
2022/07/29 05:39:28;;;;;;;12.52;11.20;;;;;;;;;;5017277;28;20155;-60
2022/07/29 05:41:53;;;;;;;12.40;10.00;;;;;;;;;;5022295;28;20088;-59
2022/07/29 05:44:19;;;;;;;12.68;11.15;;;;;;;;;;5043012;28;20057;-60
2022/07/29 05:46:44;;;;;;;10.13;9.05;;;;;;;;;;5041186;28;20029;-60
2022/07/29 05:49:09;;;;;;;10.30;9.38;;;;;;;;;;5035073;28;20857;-60
2022/07/29 05:51:34;;;;;;;10.05;9.18;;;;;;;;;;5033932;28;20029;-60
2022/07/29 05:54:00;;;;;;;9.70;8.80;;;;;;;;;;5042945;28;20479;-60
2022/07/29 05:56:25;;;;;;;9.98;8.95;;;;;;;;;;5043603;28;20542;-60
2022/07/29 05:58:50;;;;;;;11.13;9.35;;;;;;;;;;5043401;28;20056;-60
2022/07/29 06:01:15;;;;;;;10.15;9.02;;;;;;;;;;5028332;28;20120;-60
2022/07/29 06:03:41;;;;;;;9.85;8.90;;;;;;;;;;5044770;28;20061;-60
2022/07/29 06:06:07;;;;;;;10.55;9.55;;;;;;;;;;5034953;28;20030;-60
2022/07/29 06:08:33;;;;;;;13.40;10.05;;;;;;;;;;5038784;28;20163;-60
2022/07/29 06:10:58;;;;;;;10.02;9.20;;;;;;;;;;5043413;28;20028;-60
2022/07/29 06:13:24;;;;;;;10.27;9.43;;;;;;;;;;5044183;28;20481;-61
2022/07/29 06:15:49;;;;;;;9.70;8.75;;;;;;;;;;5026559;28;20024;-60
2022/07/29 06:18:14;;;;;;;10.95;9.30;;;;;;;;;;5043720;28;20104;-60
2022/07/29 06:20:39;;;;;;;10.40;9.40;;;;;;;;;;5021667;28;20079;-60
2022/07/29 06:23:05;;;;;;;12.52;8.75;;;;;;;;;;5043664;28;20109;-61
2022/07/29 06:25:30;;;;;;;8.95;8.25;;;;;;;;;;5042552;28;20545;-60
2022/07/29 06:27:56;;;;;;;9.70;8.07;;;;;;;;;;5043580;28;20040;-60
2022/07/29 06:30:21;;;;;;;11.23;10.32;;;;;;;;;;5028402;28;20075;-60
2022/07/29 06:32:47;;;;;;;10.98;8.88;;;;;;;;;;5045272;28;20155;-59
2022/07/29 06:35:12;;;;;;;10.05;8.00;;;;;;;;;;5039625;28;20569;-61
2022/07/29 06:37:37;;;;;;;9.15;8.32;;;;;;;;;;5040578;28;20404;-61
2022/07/29 06:42:47;;;;;;;9.80;8.27;;;;;;;;;;5038421;28;20067;-60
2022/07/29 06:45:12;;;;;;;9.77;7.63;;;;;;;;;;5036199;28;20462;-62
2022/07/29 06:47:38;;;;;;;11.27;8.55;;;;;;;;;;5039251;28;20025;-61
2022/07/29 06:50:04;;;;;;;8.95;8.05;;;;;;;;;;5041222;28;20482;-62
2022/07/29 06:52:29;;;;;;;10.70;7.82;;;;;;;;;;5039879;28;20387;-61
2022/07/29 06:54:54;;;;;;;8.32;7.53;;;;;;;;;;5038367;28;20234;-60
2022/07/29 06:57:20;;;;;;;7.55;6.88;;;;;;;;;;5039428;28;20561;-60
2022/07/29 06:59:46;;;;;;;8.93;8.20;;;;;;;;;;5041551;28;20033;-60
2022/07/29 07:02:11;;;;;;;8.38;7.57;;;;;;;;;;5019402;28;20494;-60
2022/07/29 07:04:37;;;;;;;7.90;7.25;;;;;;;;;;5025880;28;20048;-60
2022/07/29 07:07:02;;;;;;;8.55;7.75;;;;;;;;;;5026588;28;20471;-60
2022/07/29 07:09:27;;;;;;;12.25;8.15;;;;;;;;;;5028064;28;20037;-60
2022/07/29 07:11:52;;;;;;;11.85;7.55;;;;;;;;;;5043430;28;20307;-59
2022/07/29 07:14:18;;;;;;;8.07;7.25;;;;;;;;;;5039815;28;20043;-60
2022/07/29 07:16:43;;;;;;;9.43;7.85;;;;;;;;;;5042199;28;20033;-60
2022/07/29 07:19:08;;;;;;;10.00;7.55;;;;;;;;;;5026584;28;20035;-61
2022/07/29 07:21:33;;;;;;;9.20;7.82;;;;;;;;;;5043504;28;20902;-59
2022/07/29 07:23:59;;;;;;;9.23;8.35;;;;;;;;;;5043657;28;20025;-61
2022/07/29 07:26:25;;;;;;;8.18;7.35;;;;;;;;;;5045303;28;20374;-61
2022/07/29 07:28:50;;;;;;;8.82;7.03;;;;;;;;;;5044827;28;20423;-63
2022/07/29 07:31:15;;;;;;;7.25;6.75;;;;;;;;;;5024273;28;20082;-66
2022/07/29 07:33:40;;;;;;;8.25;7.45;;;;;;;;;;5020070;28;20115;-65
2022/07/29 07:36:06;;;;;;;8.65;7.85;;;;;;;;;;5041938;28;20037;-65
2022/07/29 07:38:31;;;;;;;7.93;7.13;;;;;;;;;;5038477;28;20029;-65
2022/07/29 07:40:56;;;;;;;10.35;7.13;;;;;;;;;;5040439;28;20140;-65
2022/07/29 07:43:22;;;;;;;8.60;7.88;;;;;;;;;;5040177;28;20445;-64
2022/07/29 07:45:47;;;;;;;9.15;8.10;;;;;;;;;;5040427;28;20548;-65
2022/07/29 07:48:13;;;;;;;8.15;7.35;;;;;;;;;;5034274;28;20621;-65
2022/07/29 07:50:38;;;;;;;7.63;7.03;;;;;;;;;;5037517;28;20049;-65
2022/07/29 07:53:03;;;;;;;8.52;7.82;;;;;;;;;;5039794;28;20020;-65
2022/07/29 07:55:28;;;;;;;7.93;7.32;;;;;;;;;;5041627;28;20384;-65
2022/07/29 07:57:54;;;;;;;8.05;7.43;;;;;;;;;;5019841;28;20029;-66
2022/07/29 08:00:20;;;;;;;7.28;6.63;;;;;;;;;;5037853;28;20121;-65
2022/07/29 08:02:45;;;;;;;8.68;7.85;;;;;;;;;;5041754;28;20036;-63
2022/07/29 08:05:13;;;;;;;8.25;7.43;;;;;;;;;;5043129;28;20433;-65
2022/07/29 08:07:38;;;;;;;8.35;7.70;;;;;;;;;;5039371;28;20033;-64
2022/07/29 08:10:04;;;;;;;7.38;6.78;;;;;;;;;;5036885;28;20090;-64
2022/07/29 08:12:29;;;;;;;8.07;7.22;;;;;;;;;;5042479;28;20433;-64
2022/07/29 08:14:55;;;;;;;7.68;7.03;;;;;;;;;;5039474;28;20029;-64
2022/07/29 08:17:21;;;;;;;8.63;7.93;;;;;;;;;;5035689;28;20068;-68
2022/07/29 08:19:48;;;;;;;7.85;7.15;;;;;;;;;;5039731;28;20025;-64
2022/07/29 08:22:13;;;;;;;8.27;7.47;;;;;;;;;;5040922;28;20057;-64
2022/07/29 08:24:52;;;;;;;7.80;6.97;;;;;;;;;;5019472;28;20116;-65
2022/07/29 08:27:17;;;;;;;7.70;7.00;;;;;;;;;;5038129;28;20029;-64
2022/07/29 08:29:42;;;;;;;9.25;7.32;;;;;;;;;;5037740;28;20036;-64
2022/07/29 08:32:08;;;;;;;7.40;6.70;;;;;;;;;;5039404;28;20386;-64
2022/07/29 08:34:33;;;;;;;8.82;7.97;;;;;;;;;;5039332;28;20040;-64
2022/07/29 08:36:59;;;;;;;7.93;7.32;;;;;;;;;;5039413;28;20025;-63
2022/07/29 08:39:24;;;;;;;8.10;7.50;;;;;;;;;;5040323;28;20028;-64
2022/07/29 08:41:50;;;;;;;8.50;7.63;;;;;;;;;;5037741;28;20060;-63
2022/07/29 08:44:17;;;;;;;7.88;7.18;;;;;;;;;;5038302;28;20035;-64
2022/07/29 08:46:42;;;;;;;8.93;8.23;;;;;;;;;;5021852;28;20548;-64
2022/07/29 08:49:07;;;;;;;7.95;7.18;;;;;;;;;;5020561;28;20056;-64
2022/07/29 08:51:33;;;;;;;8.93;7.10;;;;;;;;;;5040032;28;20064;-63
2022/07/29 08:53:59;;;;;;;7.60;6.90;;;;;;;;;;5037933;28;20024;-65
2022/07/29 08:56:24;;;;;;;7.95;7.22;;;;;;;;;;5040182;28;20053;-63
2022/07/29 08:58:50;;;;;;;9.25;7.68;;;;;;;;;;5040669;28;20021;-65
2022/07/29 09:01:16;;;;;;;7.43;6.75;;;;;;;;;;5037989;28;20118;-64
2022/07/29 09:03:43;;;;;;;7.97;7.38;;;;;;;;;;5040299;28;20103;-64
2022/07/29 09:06:08;;;;;;;8.35;7.65;;;;;;;;;;5040857;28;20041;-65
2022/07/29 09:08:34;;;;;;;8.57;7.57;;;;;;;;;;5037495;28;20031;-64
2022/07/29 09:11:00;;;;;;;7.88;7.28;;;;;;;;;;5036393;28;20651;-64
2022/07/29 09:13:26;;;;;;;8.73;7.88;;;;;;;;;;5034396;28;20465;-64
2022/07/29 09:15:51;;;;;;;8.27;7.68;;;;;;;;;;5035600;28;20088;-64
2022/07/29 09:18:46;;;;;;;8.43;7.72;;;;;;;;;;5036649;28;20377;-64
2022/07/29 09:24:02;;;;;;;11.60;7.93;;;;;;;;;;5035569;28;20148;-65
2022/07/29 09:26:28;;;;;;;8.18;7.63;;;;;;;;;;5017775;28;20100;-65
2022/07/29 09:28:53;;;;;;;8.63;7.72;;;;;;;;;;5035154;28;20029;-65
2022/07/29 09:31:26;;;;;;;7.65;7.05;;;;;;;;;;5037980;28;20048;-65
2022/07/29 09:33:51;;;;;;;8.60;7.70;;;;;;;;;;5037815;28;20133;-64
2022/07/29 09:36:17;;;;;;;9.13;8.43;;;;;;;;;;5019896;28;20033;-65
2022/07/29 09:38:42;;;;;;;10.18;8.95;;;;;;;;;;5036828;28;20543;-64
2022/07/29 09:41:09;;;;;;;17.45;10.25;;;;;;;;;;4993209;28;1325167;-63
2022/07/29 09:43:35;;;;;;;13.10;8.25;;;;;;;;;;5039651;28;20043;-62
2022/07/29 09:46:18;;;;;;;12.20;8.30;;;;;;;;;;5037324;28;20033;-61
2022/07/29 09:48:45;;;;;;;9.68;8.40;;;;;;;;;;5035797;28;20036;-68
2022/07/29 09:51:19;;;;;;;10.85;7.75;;;;;;;;;;5038224;28;20029;-63
2022/07/29 09:53:45;;;;;;;8.35;7.38;;;;;;;;;;5032471;28;20574;-68
2022/07/29 09:56:10;;;;;;;14.48;8.43;;;;;;;;;;5013574;28;20044;-65
2022/07/29 09:58:35;;;;;;;11.50;8.80;;;;;;;;;;5031582;28;20036;-66
2022/07/29 10:01:01;;;;;;;11.80;7.95;;;;;;;;;;5034464;28;20037;-66
2022/07/29 10:03:26;;;;;;;8.27;7.72;;;;;;;;;;5034724;28;20025;-66
2022/07/29 10:06:05;;;;;;;7.88;7.22;;;;;;;;;;5037815;28;20049;-63
2022/07/29 10:08:31;;;;;;;8.07;7.38;;;;;;;;;;5034759;28;20025;-66
2022/07/29 10:11:08;;;;;;;8.20;7.40;;;;;;;;;;5034059;28;20106;-65
2022/07/29 10:13:33;;;;;;;7.60;6.95;;;;;;;;;;5036590;28;20492;-66
2022/07/29 10:15:59;;;;;;;8.32;7.63;;;;;;;;;;5036244;28;20027;-66
2022/07/29 10:18:24;;;;;;;8.73;8.00;;;;;;;;;;5036008;28;20033;-66
2022/07/29 10:20:49;;;;;;;8.57;7.75;;;;;;;;;;5019047;28;21007;-65
2022/07/29 10:23:15;;;;;;;8.13;7.47;;;;;;;;;;5035568;28;20039;-65
2022/07/29 10:25:40;;;;;;;7.60;7.00;;;;;;;;;;5034772;28;20798;-65
2022/07/29 10:28:06;;;;;;;7.50;6.95;;;;;;;;;;5037306;28;20475;-65
2022/07/29 10:30:31;;;;;;;8.93;7.20;;;;;;;;;;5035853;28;20032;-65
2022/07/29 10:33:06;;;;;;;7.63;7.13;;;;;;;;;;5037147;28;20029;-65
2022/07/29 10:35:49;;;;;;;9.02;8.15;;;;;;;;;;5036050;28;20099;-64
2022/07/29 10:38:27;;;;;;;29.67;22.20;;;;;;;;;;5037388;28;20463;-65
2022/07/29 10:41:26;;;;;;;11.95;10.60;;;;;;;;;;5041899;28;20487;-65
2022/07/29 10:43:52;;;;;;;8.20;7.47;;;;;;;;;;5039835;28;20033;-66
2022/07/29 10:46:18;;;;;;;7.70;7.00;;;;;;;;;;5041288;28;20021;-63
2022/07/29 10:49:02;;;;;;;7.75;7.03;;;;;;;;;;5039504;28;20071;-64
2022/07/29 10:51:47;;;;;;;8.48;7.72;;;;;;;;;;5013052;28;20423;-65
2022/07/29 10:54:12;;;;;;;8.50;7.72;;;;;;;;;;5038282;28;20041;-64
2022/07/29 10:56:37;;;;;;;8.25;7.55;;;;;;;;;;5042032;28;20094;-61
2022/07/29 10:59:21;;;;;;;8.85;7.40;;;;;;;;;;5040183;28;20021;-61
2022/07/29 11:01:53;;;;;;;8.02;7.32;;;;;;;;;;5039710;28;20037;-63
2022/07/29 11:04:37;;;;;;;11.48;7.28;;;;;;;;;;5038625;28;20472;-63
2022/07/29 11:07:06;;;;;;;7.07;6.47;;;;;;;;;;5041339;28;20062;-61
2022/07/29 11:09:31;;;;;;;7.60;7.10;;;;;;;;;;5020981;28;20032;-61
2022/07/29 11:11:57;;;;;;;7.13;6.43;;;;;;;;;;5022516;28;20059;-61
2022/07/29 11:14:41;;;;;;;7.63;6.82;;;;;;;;;;5040575;28;20044;-60
2022/07/29 11:17:07;;;;;;;7.07;6.13;;;;;;;;;;5042703;28;20534;-58
2022/07/29 11:19:32;;;;;;;7.13;6.53;;;;;;;;;;5038887;28;20292;-62
2022/07/29 11:21:58;;;;;;;9.50;8.80;;;;;;;;;;5035671;28;20395;-63
2022/07/29 11:24:27;;;;;;;10.80;9.85;;;;;;;;;;5036823;28;20071;-63
2022/07/29 11:27:08;;;;;;;10.43;7.57;;;;;;;;;;5041589;28;20024;-60
2022/07/29 11:29:35;;;;;;;10.68;9.88;;;;;;;;;;5040821;28;20050;-63
2022/07/29 11:32:11;;;;;;;10.00;9.23;;;;;;;;;;5044037;28;20029;-63
2022/07/29 11:34:40;;;;;;;10.50;9.13;;;;;;;;;;5043972;28;20120;-63
2022/07/29 11:37:14;;;;;;;9.35;8.38;;;;;;;;;;5027145;28;20025;-62
2022/07/29 11:39:39;;;;;;;;;;;;;;;;;;5038949;28;20032;-63
2022/07/29 11:42:20;;;;;;;7.22;6.63;;;;;;;;;;5038198;28;19927;-60
2022/07/29 11:44:57;;;;;;;7.28;6.68;;;;;;;;;;5038816;28;20107;-63
2022/07/29 11:47:23;;;;;;;8.93;7.10;;;;;;;;;;5042091;28;20107;-63
2022/07/29 11:49:50;;;;;;;8.38;7.65;;;;;;;;;;5039480;28;20033;-63
2022/07/29 11:52:16;;;;;;;7.13;6.53;;;;;;;;;;5038731;28;20032;-62
2022/07/29 11:54:42;;;;;;;6.65;6.25;;;;;;;;;;5040214;28;20487;-63
2022/07/29 11:57:07;;;;;;;7.85;7.30;;;;;;;;;;5042243;28;20037;-63
2022/07/29 11:59:38;;;;;;;6.95;6.45;;;;;;;;;;5042558;28;20041;-65
2022/07/29 12:02:03;;;;;;;7.93;7.35;;;;;;;;;;5037681;28;20044;-64
2022/07/29 12:04:29;;;;;;;7.40;6.68;;;;;;;;;;5039032;28;20166;-65
2022/07/29 12:06:55;;;;;;;9.05;6.70;;;;;;;;;;5041832;28;20486;-63
2022/07/29 12:09:22;;;;;;;10.10;9.18;;;;;;;;;;5041915;28;20148;-62
2022/07/29 12:11:47;;;;;;;8.05;7.07;;;;;;;;;;5043629;28;20048;-62
2022/07/29 12:14:31;;;;;;;7.80;7.00;;;;;;;;;;5027244;28;20078;-63
2022/07/29 12:16:57;;;;;;;7.93;7.35;;;;;;;;;;5024657;28;20589;-62
2022/07/29 12:19:23;;;;;;;9.48;7.43;;;;;;;;;;5041649;28;20071;-62
2022/07/29 12:21:48;;;;;;;7.50;6.53;;;;;;;;;;5042473;28;20455;-62
2022/07/29 12:24:14;;;;;;;7.60;6.88;;;;;;;;;;5043982;28;20113;-63
2022/07/29 12:26:49;;;;;;;7.32;6.82;;;;;;;;;;5040378;28;20032;-63
2022/07/29 12:29:15;;;;;;;8.48;7.78;;;;;;;;;;5042826;28;20024;-63
2022/07/29 12:31:41;;;;;;;6.90;6.40;;;;;;;;;;5044143;28;20037;-62
2022/07/29 12:34:06;;;;;;;7.85;7.03;;;;;;;;;;5043566;28;20055;-63
2022/07/29 12:36:31;;;;;;;9.68;7.72;;;;;;;;;;5041517;28;20060;-62
2022/07/29 12:38:57;;;;;;;7.28;6.78;;;;;;;;;;5040119;28;20052;-60
2022/07/29 12:41:22;;;;;;;7.75;6.90;;;;;;;;;;5040250;28;20064;-60
2022/07/29 12:43:54;;;;;;;8.60;7.78;;;;;;;;;;5041287;28;20039;-59
2022/07/29 12:46:19;;;;;;;8.20;7.40;;;;;;;;;;5041406;28;20036;-59
2022/07/29 12:48:44;;;;;;;8.32;7.55;;;;;;;;;;5043522;28;20037;-60
2022/07/29 12:51:11;;;;;;;10.07;8.23;;;;;;;;;;5044755;28;20574;-61
2022/07/29 12:53:37;;;;;;;8.43;7.53;;;;;;;;;;5025075;28;20464;-60
2022/07/29 12:56:03;;;;;;;8.23;7.47;;;;;;;;;;5041382;28;20083;-61
2022/07/29 12:58:33;;;;;;;8.38;7.60;;;;;;;;;;5043724;28;20024;-61
2022/07/29 13:01:04;;;;;;;9.13;7.43;;;;;;;;;;5043865;28;20372;-61
2022/07/29 13:03:40;;;;;;;8.25;7.55;;;;;;;;;;5041679;28;20029;-59
2022/07/29 13:06:06;;;;;;;8.50;7.72;;;;;;;;;;5040949;28;20119;-60
2022/07/29 13:08:31;;;;;;;9.50;7.88;;;;;;;;;;5044035;28;20168;-60
2022/07/29 13:10:56;;;;;;;9.07;8.30;;;;;;;;;;5024100;28;20124;-60
2022/07/29 13:13:21;;;;;;;7.60;7.13;;;;;;;;;;5021499;28;20060;-61
2022/07/29 13:16:04;;;;;;;8.23;7.43;;;;;;;;;;5018116;28;20029;-60
2022/07/29 13:18:31;;;;;;;9.85;7.53;;;;;;;;;;5043863;28;20026;-58
2022/07/29 13:21:09;;;;;;;8.20;7.47;;;;;;;;;;5042037;28;20029;-59
2022/07/29 13:23:34;;;;;;;7.28;6.57;;;;;;;;;;5038998;28;20025;-64
2022/07/29 13:26:07;;;;;;;11.80;7.35;;;;;;;;;;5021858;28;20028;-60
2022/07/29 13:28:32;;;;;;;9.30;8.68;;;;;;;;;;5044108;28;20067;-61
2022/07/29 13:30:57;;;;;;;8.07;7.47;;;;;;;;;;5041763;28;20528;-63
2022/07/29 13:33:23;;;;;;;8.43;7.72;;;;;;;;;;5037274;28;20542;-60
2022/07/29 13:35:49;;;;;;;7.72;7.10;;;;;;;;;;5033019;28;20116;-59
2022/07/29 13:38:14;;;;;;;10.80;7.63;;;;;;;;;;5041764;28;20455;-62
2022/07/29 13:40:40;;;;;;;9.30;8.32;;;;;;;;;;5022862;28;20647;-63
2022/07/29 13:43:08;;;;;;;8.38;7.70;;;;;;;;;;5012424;28;20067;-60
2022/07/29 13:45:33;;;;;;;8.55;7.70;;;;;;;;;;5022085;28;20032;-61
2022/07/29 13:47:59;;;;;;;8.05;7.38;;;;;;;;;;5040057;28;20017;-60
2022/07/29 13:50:24;;;;;;;10.32;8.23;;;;;;;;;;5038308;28;20143;-60
2022/07/29 13:52:50;;;;;;;8.55;7.72;;;;;;;;;;5040254;28;20029;-59
2022/07/29 13:55:15;;;;;;;8.18;7.47;;;;;;;;;;5037880;28;20029;-59
2022/07/29 13:57:41;;;;;;;7.60;7.00;;;;;;;;;;5010804;28;20035;-59
2022/07/29 14:00:06;;;;;;;10.15;6.25;;;;;;;;;;5040309;28;20509;-60
2022/07/29 14:02:33;;;;;;;8.60;5.63;;;;;;;;;;5024841;28;20032;-61
2022/07/29 14:04:58;;;;;;;5.82;5.22;;;;;;;;;;5039048;28;20082;-59
2022/07/29 14:07:23;;;;;;;5.97;5.57;;;;;;;;;;5037879;28;20025;-60
2022/07/29 14:09:49;;;;;;;6.13;5.63;;;;;;;;;;5038528;28;20052;-59
2022/07/29 14:12:15;;;;;;;6.43;5.78;;;;;;;;;;5041489;28;20458;-60
2022/07/29 14:14:41;;;;;;;6.65;6.15;;;;;;;;;;5041532;28;20417;-61
2022/07/29 14:17:06;;;;;;;6.57;5.93;;;;;;;;;;5042645;28;20032;-59
2022/07/29 14:19:35;;;;;;;6.70;6.20;;;;;;;;;;5046411;28;20047;-59
2022/07/29 14:22:00;;;;;;;6.25;5.75;;;;;;;;;;5045978;28;20021;-59
2022/07/29 14:24:25;;;;;;;7.20;6.50;;;;;;;;;;5043205;28;20036;-59
2022/07/29 14:26:50;;;;;;;6.70;6.20;;;;;;;;;;5042669;28;20454;-60
2022/07/29 14:29:16;;;;;;;6.78;6.15;;;;;;;;;;5045610;28;20021;-59
2022/07/29 14:31:42;;;;;;;6.45;5.72;;;;;;;;;;5045345;28;20029;-60
2022/07/29 14:34:08;;;;;;;6.18;5.68;;;;;;;;;;5042655;28;20021;-59
2022/07/29 14:36:33;;;;;;;5.80;5.35;;;;;;;;;;5024316;28;20026;-60
2022/07/29 14:38:58;;;;;;;6.10;5.50;;;;;;;;;;5045990;28;20022;-60
2022/07/29 14:41:23;;;;;;;6.28;5.32;;;;;;;;;;5012254;28;20063;-59
2022/07/29 14:43:48;;;;;;;5.78;5.20;;;;;;;;;;5041273;28;20446;-60
2022/07/29 14:46:14;;;;;;;5.90;5.30;;;;;;;;;;5044108;28;20105;-60